createdAt,value
2023-12-09T00:00:00.096Z,13.4
2023-12-09T00:05:00.103Z,11.5
2023-12-09T00:10:00.090Z,14.1
2023-12-09T00:15:00.082Z,13.7
2023-12-09T00:20:00.094Z,14.1
2023-12-09T00:25:00.126Z,13.7
2023-12-09T00:30:00.145Z,14
2023-12-09T00:35:00.078Z,14.2
2023-12-09T00:40:00.086Z,15.2
2023-12-09T00:45:00.169Z,13.9
2023-12-09T00:50:00.085Z,13.4
2023-12-09T00:55:00.069Z,13
2023-12-09T01:00:00.135Z,12.7
2023-12-09T01:05:00.175Z,13.1
2023-12-09T01:10:00.094Z,13.4
2023-12-09T01:15:00.133Z,11.7
2023-12-09T01:20:00.120Z,13
2023-12-09T01:25:00.096Z,13.4
2023-12-09T01:30:00.097Z,12.6
2023-12-09T01:35:00.073Z,12.5
2023-12-09T01:40:00.066Z,13
2023-12-09T01:45:00.145Z,11.3
2023-12-09T01:50:00.235Z,9.6
2023-12-09T01:55:00.077Z,10.1
2023-12-09T02:00:00.077Z,9.2
2023-12-09T02:05:00.124Z,9.5
2023-12-09T02:10:00.074Z,9.9
2023-12-09T02:15:00.207Z,9.6
2023-12-09T02:20:00.070Z,10.6
2023-12-09T02:25:00.152Z,10.2
2023-12-09T02:30:00.125Z,10
2023-12-09T02:35:00.073Z,9.1
2023-12-09T02:40:00.091Z,8.7
2023-12-09T02:45:00.125Z,8.4
2023-12-09T02:50:00.116Z,7.8
2023-12-09T02:55:00.067Z,6.5
2023-12-09T03:00:00.140Z,7
2023-12-09T03:05:00.130Z,8
2023-12-09T03:10:00.087Z,5.7
2023-12-09T03:15:00.109Z,7.5
2023-12-09T03:20:00.075Z,6.4
2023-12-09T03:25:00.126Z,7.8
2023-12-09T03:30:00.103Z,5.8
2023-12-09T03:35:00.083Z,7.5
2023-12-09T03:40:00.069Z,7.5
2023-12-09T03:45:00.122Z,7.1
2023-12-09T03:50:00.066Z,6.6
2023-12-09T03:55:00.071Z,6.7
2023-12-09T04:00:00.126Z,6.6
2023-12-09T04:05:00.107Z,6.8
2023-12-09T04:10:00.087Z,6.8
2023-12-09T04:15:00.091Z,5.9
2023-12-09T04:20:00.143Z,5.9
2023-12-09T04:25:00.110Z,5.6
2023-12-09T04:30:00.142Z,5.3
2023-12-09T04:35:00.086Z,4.5
2023-12-09T04:40:00.080Z,4.6
2023-12-09T04:45:00.129Z,4.6
2023-12-09T04:50:00.081Z,4.5
2023-12-09T04:55:00.114Z,4.7
2023-12-09T05:00:00.103Z,4.7
2023-12-09T05:05:00.115Z,5
2023-12-09T05:10:00.065Z,5.3
2023-12-09T05:15:00.071Z,5.1
2023-12-09T05:20:00.074Z,5.2
2023-12-09T05:25:00.123Z,5.5
2023-12-09T05:30:00.144Z,6.2
2023-12-09T05:35:00.070Z,5
2023-12-09T05:40:00.120Z,5.7
2023-12-09T05:45:00.251Z,5.6
2023-12-09T05:50:00.124Z,5.5
2023-12-09T05:55:00.069Z,4.6
2023-12-09T06:00:00.229Z,5.3
2023-12-09T06:05:00.100Z,5.8
2023-12-09T06:10:00.085Z,6.3
2023-12-09T06:15:00.104Z,6.2
2023-12-09T06:20:00.116Z,6.2
2023-12-09T06:25:00.105Z,5.2
2023-12-09T06:30:00.126Z,6.2
2023-12-09T06:35:00.076Z,5.6
2023-12-09T06:40:00.074Z,5.8
2023-12-09T06:45:00.105Z,5.3
2023-12-09T06:50:00.069Z,5.6
2023-12-09T06:55:00.084Z,6.9
2023-12-09T07:00:00.086Z,7
2023-12-09T07:05:00.103Z,6.5
2023-12-09T07:10:00.077Z,7.5
2023-12-09T07:15:00.111Z,8.2
2023-12-09T07:20:00.101Z,7.5
2023-12-09T07:25:00.112Z,7.9
2023-12-09T07:30:00.076Z,7.7
2023-12-09T07:35:00.168Z,7.9
2023-12-09T07:40:00.067Z,8.5
2023-12-09T07:45:00.170Z,7.7
2023-12-09T07:50:00.097Z,7.6
2023-12-09T07:55:00.072Z,7.7
2023-12-09T08:00:00.101Z,7.3
2023-12-09T08:05:00.129Z,6.9
2023-12-09T08:10:00.082Z,6.1
2023-12-09T08:15:00.094Z,6.8
2023-12-09T08:20:00.113Z,7.1
2023-12-09T08:25:00.106Z,6.7
2023-12-09T08:30:00.149Z,7.6
2023-12-09T08:35:03.380Z,6.8
2023-12-09T08:40:00.088Z,6.9
2023-12-09T08:45:00.144Z,7.1
2023-12-09T08:50:00.170Z,6.8
2023-12-09T08:55:01.741Z,6.9
2023-12-09T09:00:00.111Z,7.1
2023-12-09T09:05:00.134Z,7
2023-12-09T09:10:00.077Z,9.1
2023-12-09T09:15:01.238Z,7.8
2023-12-09T09:20:00.092Z,7.8
2023-12-09T09:25:00.122Z,9
2023-12-09T09:30:00.255Z,8.3
2023-12-09T09:35:00.123Z,7.4
2023-12-09T09:40:00.079Z,7.4
2023-12-09T09:45:00.109Z,6.6
2023-12-09T09:50:00.107Z,7
2023-12-09T09:55:00.076Z,7.2
2023-12-09T10:00:00.122Z,7.1
2023-12-09T10:05:00.114Z,7.3
2023-12-09T10:10:00.087Z,6.6
2023-12-09T10:15:00.133Z,6
2023-12-09T10:20:00.210Z,6.1
2023-12-09T10:25:00.119Z,6.2
2023-12-09T10:30:00.187Z,6.1
2023-12-09T10:35:02.271Z,6.9
2023-12-09T10:40:00.079Z,6
2023-12-09T10:45:00.192Z,5.5
2023-12-09T10:50:00.470Z,5.2
2023-12-09T10:55:00.082Z,5.3
2023-12-09T11:00:00.082Z,4.7
2023-12-09T11:05:00.156Z,5.4
2023-12-09T11:10:00.082Z,4.9
2023-12-09T11:15:00.077Z,4.7
2023-12-09T11:20:00.239Z,5.2
2023-12-09T11:25:00.097Z,5.1
2023-12-09T11:30:01.903Z,5
2023-12-09T11:35:00.078Z,5.9
2023-12-09T11:40:00.068Z,5.3
2023-12-09T11:45:00.111Z,5.5
2023-12-09T11:50:00.083Z,4.7
2023-12-09T11:55:00.072Z,4.7
2023-12-09T12:00:00.144Z,5.1
2023-12-09T12:05:00.102Z,5.6
2023-12-09T12:10:00.064Z,5.8
2023-12-09T12:15:00.257Z,5.1
2023-12-09T12:20:00.081Z,5.1
2023-12-09T12:25:00.096Z,4.6
2023-12-09T12:30:00.116Z,4.3
2023-12-09T12:35:00.167Z,4.6
2023-12-09T12:40:00.076Z,3.8
2023-12-09T12:45:00.270Z,4.1
2023-12-09T12:50:00.192Z,4.2
2023-12-09T12:55:00.096Z,4.7
2023-12-09T13:00:03.878Z,4.6
2023-12-09T13:05:00.097Z,4.4
2023-12-09T13:10:00.077Z,4.1
2023-12-09T13:15:00.147Z,4.3
2023-12-09T13:20:00.229Z,5.2
2023-12-09T13:25:00.354Z,4.6
2023-12-09T13:30:00.126Z,4.2
2023-12-09T13:35:00.106Z,4.4
2023-12-09T13:40:00.214Z,4.4
2023-12-09T13:45:00.232Z,3.7
2023-12-09T13:50:00.066Z,4.1
2023-12-09T13:55:00.110Z,3.7
2023-12-09T14:00:00.220Z,4
2023-12-09T14:05:00.156Z,3.8
2023-12-09T14:10:00.087Z,4.3
2023-12-09T14:15:00.077Z,4.6
2023-12-09T14:20:00.202Z,3.4
2023-12-09T14:25:00.110Z,4
2023-12-09T14:30:00.077Z,3.6
2023-12-09T14:35:00.203Z,3.8
2023-12-09T14:40:00.070Z,3.5
2023-12-09T14:45:00.097Z,3.9
2023-12-09T14:50:00.166Z,3.8
2023-12-09T14:55:00.075Z,3.5
2023-12-09T15:00:00.076Z,3.9
2023-12-09T15:05:00.142Z,3.8
2023-12-09T15:10:00.067Z,3.6
2023-12-09T15:15:00.081Z,3.5
2023-12-09T15:20:00.176Z,3.6
2023-12-09T15:25:00.108Z,3.6
2023-12-09T15:30:00.086Z,3.8
2023-12-09T15:35:00.166Z,3.6
2023-12-09T15:40:00.064Z,4
2023-12-09T15:45:00.101Z,3.8
2023-12-09T15:50:00.096Z,4.3
2023-12-09T15:55:00.080Z,4.2
2023-12-09T16:00:00.072Z,4.5
2023-12-09T16:05:00.099Z,4.5
2023-12-09T16:10:00.144Z,4.6
2023-12-09T16:15:02.470Z,4.8
2023-12-09T16:20:00.171Z,5.2
2023-12-09T16:25:00.086Z,5
2023-12-09T16:30:00.127Z,5.5
2023-12-09T16:35:00.073Z,6.2
2023-12-09T16:40:00.124Z,6.2
2023-12-09T16:45:00.115Z,6.4
2023-12-09T16:50:00.128Z,6.5
2023-12-09T16:55:00.085Z,7.2
2023-12-09T17:00:00.076Z,7.2
2023-12-09T17:05:00.208Z,7
2023-12-09T17:10:00.092Z,6.9
2023-12-09T17:15:00.083Z,6.8
2023-12-09T17:20:00.135Z,6.4
2023-12-09T17:25:00.183Z,6.4
2023-12-09T17:30:00.111Z,6.1
2023-12-09T17:35:00.109Z,5.1
2023-12-09T17:40:00.082Z,4.9
2023-12-09T17:45:00.158Z,5.4
2023-12-09T17:50:00.118Z,5.4
2023-12-09T17:55:00.076Z,5.5
2023-12-09T18:00:00.086Z,5.2
2023-12-09T18:05:00.161Z,4.8
2023-12-09T18:10:00.084Z,4.9
2023-12-09T18:15:00.074Z,4.9
2023-12-09T18:20:00.069Z,5.4
2023-12-09T18:25:00.137Z,4.7
2023-12-09T18:30:00.097Z,4.3
2023-12-09T18:35:00.091Z,4.5
2023-12-09T18:40:00.077Z,3.8
2023-12-09T18:45:00.098Z,3.9
2023-12-09T18:50:00.182Z,4
2023-12-09T18:55:00.068Z,3.9
2023-12-09T19:00:00.078Z,3.5
2023-12-09T19:05:00.159Z,3.9
2023-12-09T19:10:02.228Z,4.4
2023-12-09T19:15:00.096Z,3.3
2023-12-09T19:20:00.304Z,3.5
2023-12-09T19:25:00.101Z,3.7
2023-12-09T19:30:00.079Z,4.8
2023-12-09T19:35:00.120Z,4.9
2023-12-09T19:40:00.076Z,4.2
2023-12-09T19:45:00.120Z,4
2023-12-09T19:50:00.115Z,3.9
2023-12-09T19:55:00.084Z,4
2023-12-09T20:00:00.079Z,3.4
2023-12-09T20:05:00.118Z,3.5
2023-12-09T20:10:00.074Z,3.4
2023-12-09T20:15:00.094Z,2.6
2023-12-09T20:20:00.174Z,2.9
2023-12-09T20:25:00.090Z,2.1
2023-12-09T20:30:00.077Z,2.2
2023-12-09T20:35:00.080Z,1.8
2023-12-09T20:40:00.075Z,1.5
2023-12-09T20:45:00.105Z,1.2
2023-12-09T20:50:00.149Z,1.6
2023-12-09T20:55:00.069Z,1.2
2023-12-09T21:00:00.094Z,1
2023-12-09T21:05:00.113Z,1.1
2023-12-09T21:10:00.070Z,1.2
2023-12-09T21:15:00.118Z,1.3
2023-12-09T21:20:00.157Z,1.1
2023-12-09T21:25:00.160Z,1.1
2023-12-09T21:30:00.095Z,1
2023-12-09T21:35:00.077Z,1.1
2023-12-09T21:40:00.806Z,1.3
2023-12-09T21:45:00.101Z,1.3
2023-12-09T21:50:00.132Z,1.6
2023-12-09T21:55:00.086Z,1.7
2023-12-09T22:00:00.082Z,2.2
2023-12-09T22:05:00.156Z,2
2023-12-09T22:10:00.071Z,1.4
2023-12-09T22:15:00.093Z,1.6
2023-12-09T22:20:00.089Z,1.3
2023-12-09T22:25:00.129Z,1.5
2023-12-09T22:30:00.104Z,1.5
2023-12-09T22:35:00.190Z,1.7
2023-12-09T22:40:00.144Z,1.8
2023-12-09T22:45:00.104Z,1.6
2023-12-09T22:50:00.271Z,1.9
2023-12-09T22:55:00.077Z,2.2
2023-12-09T23:00:00.122Z,1.6
2023-12-09T23:05:00.098Z,1.3
2023-12-09T23:10:00.170Z,1.3
2023-12-09T23:15:00.068Z,1.1
2023-12-09T23:20:00.066Z,1.5
2023-12-09T23:25:00.134Z,1.7
2023-12-09T23:30:00.082Z,1.6
2023-12-09T23:35:00.068Z,1.3
2023-12-09T23:40:00.073Z,1.1
2023-12-09T23:45:00.110Z,1.1
2023-12-09T23:50:00.086Z,1.3
2023-12-09T23:55:00.079Z,1.7
